createdAt,value
2019-01-16T00:00:49.145Z,98.10
2019-01-16T00:03:21.938Z,98.20
2019-01-16T00:06:07.152Z,98.30
2019-01-16T00:08:37.214Z,98.40
2019-01-16T00:11:22.183Z,98.20
2019-01-16T00:14:03.984Z,98.20
2019-01-16T00:16:34.012Z,98.30
2019-01-16T00:19:07.039Z,98.60
2019-01-16T00:21:37.070Z,98.40
2019-01-16T00:24:10.141Z,98.60
2019-01-16T00:26:56.394Z,98.70
2019-01-16T00:29:29.387Z,98.80
2019-01-16T00:32:02.106Z,98.80
2019-01-16T00:34:48.479Z,98.70
2019-01-16T00:37:34.823Z,98.60
2019-01-16T00:40:18.056Z,98.80
2019-01-16T00:42:50.815Z,98.90
2019-01-16T00:45:36.036Z,98.90
2019-01-16T00:48:09.087Z,98.80
2019-01-16T00:50:39.107Z,98.90
2019-01-16T00:53:09.163Z,98.60
2019-01-16T00:55:48.017Z,99.00
2019-01-16T00:58:18.075Z,98.70
2019-01-16T01:00:57.129Z,98.60
2019-01-16T01:03:27.186Z,98.70
2019-01-16T01:05:57.207Z,98.70
2019-01-16T01:08:39.450Z,98.70
2019-01-16T01:11:25.811Z,98.60
2019-01-16T01:13:59.176Z,98.60
2019-01-16T01:16:29.204Z,98.60
2019-01-16T01:18:59.223Z,98.40
2019-01-16T01:21:29.279Z,98.20
2019-01-16T01:24:02.011Z,98.30
2019-01-16T01:26:47.132Z,98.00
2019-01-16T01:29:23.191Z,98.30
2019-01-16T01:31:53.251Z,98.20
2019-01-16T01:34:23.277Z,98.20
2019-01-16T01:37:05.275Z,98.10
2019-01-16T01:39:51.464Z,98.20
2019-01-16T01:42:33.444Z,98.00
2019-01-16T01:45:05.903Z,97.90
2019-01-16T01:47:39.111Z,98.20
2019-01-16T01:50:26.967Z,98.00
2019-01-16T01:52:57.018Z,97.70
2019-01-16T01:55:35.677Z,97.80
2019-01-16T01:58:21.040Z,97.70
2019-01-16T02:00:51.069Z,97.60
2019-01-16T02:03:24.063Z,97.60
2019-01-16T02:06:00.099Z,97.50
2019-01-16T02:08:32.571Z,97.60
2019-01-16T02:11:18.668Z,97.50
2019-01-16T02:13:51.656Z,97.50
2019-01-16T02:16:30.438Z,97.60
2019-01-16T02:19:09.465Z,97.50
2019-01-16T02:21:57.767Z,97.60
2019-01-16T02:24:36.663Z,97.50
2019-01-16T02:27:23.007Z,97.70
2019-01-16T02:29:56.044Z,97.60
2019-01-16T02:32:28.776Z,97.60
2019-01-16T02:35:04.956Z,97.30
2019-01-16T02:37:50.083Z,97.50
2019-01-16T02:40:22.979Z,97.50
2019-01-16T02:42:53.004Z,97.60
2019-01-16T02:45:23.054Z,97.40
2019-01-16T02:47:59.078Z,97.40
2019-01-16T02:50:29.123Z,97.40
2019-01-16T02:53:02.212Z,97.60
2019-01-16T02:55:48.822Z,97.50
2019-01-16T02:58:33.832Z,97.60
2019-01-16T03:01:06.599Z,97.60
2019-01-16T03:03:42.528Z,97.50
2019-01-16T03:06:15.315Z,97.40
2019-01-16T03:08:45.337Z,97.40
2019-01-16T03:11:18.059Z,97.40
2019-01-16T03:13:48.074Z,97.40
2019-01-16T03:16:23.804Z,97.60
2019-01-16T03:19:11.906Z,97.10
2019-01-16T03:21:41.955Z,97.20
2019-01-16T03:24:14.540Z,97.20
2019-01-16T03:26:50.393Z,97.10
2019-01-16T03:29:36.317Z,97.10
2019-01-16T03:32:06.350Z,97.20
2019-01-16T03:34:36.374Z,97.20
2019-01-16T03:37:06.385Z,97.20
2019-01-16T03:39:52.902Z,97.50
2019-01-16T03:42:25.897Z,97.50
2019-01-16T03:44:55.966Z,97.60
2019-01-16T03:47:31.800Z,97.60
2019-01-16T03:50:07.681Z,97.90
2019-01-16T03:52:40.687Z,97.60
2019-01-16T03:55:26.766Z,97.70
2019-01-16T03:58:02.494Z,97.50
2019-01-16T04:00:32.538Z,97.30
2019-01-16T04:03:17.842Z,97.40
2019-01-16T04:06:02.862Z,97.30
2019-01-16T04:08:47.849Z,97.10
2019-01-16T04:11:23.798Z,97.40
2019-01-16T04:13:53.816Z,97.00
2019-01-16T04:16:23.868Z,96.90
2019-01-16T04:18:56.915Z,96.90
2019-01-16T04:21:29.937Z,97.00
2019-01-16T04:24:09.167Z,96.80
2019-01-16T04:27:06.669Z,97.00
2019-01-16T04:29:52.677Z,96.80
2019-01-16T04:32:31.613Z,97.10
2019-01-16T04:35:04.478Z,97.20
2019-01-16T04:37:50.777Z,97.10
2019-01-16T04:40:32.934Z,97.20
2019-01-16T04:43:05.655Z,97.20
2019-01-16T04:45:53.966Z,97.00
2019-01-16T04:48:26.577Z,97.00
2019-01-16T04:51:05.321Z,96.90
2019-01-16T04:53:38.062Z,97.00
2019-01-16T04:56:23.227Z,96.90
2019-01-16T04:58:59.013Z,97.00
2019-01-16T05:01:35.026Z,96.90
2019-01-16T05:04:20.326Z,96.70
2019-01-16T05:06:50.805Z,96.90
2019-01-16T05:09:26.922Z,97.00
2019-01-16T05:11:56.943Z,97.20
2019-01-16T05:14:26.985Z,96.90
2019-01-16T05:17:08.977Z,97.00
2019-01-16T05:19:55.197Z,96.80
2019-01-16T05:22:31.235Z,96.90
2019-01-16T05:25:10.437Z,96.80
2019-01-16T05:27:48.962Z,96.80
2019-01-16T05:30:24.531Z,96.90
2019-01-16T05:32:57.433Z,97.10
2019-01-16T05:35:42.498Z,97.10
2019-01-16T05:38:21.457Z,97.20
2019-01-16T05:40:51.489Z,97.00
2019-01-16T05:43:30.293Z,97.20
2019-01-16T05:46:00.338Z,97.10
2019-01-16T05:48:48.645Z,96.80
2019-01-16T05:51:18.691Z,96.80
2019-01-16T05:54:04.860Z,96.60
2019-01-16T05:56:34.910Z,96.70
2019-01-16T05:59:17.213Z,96.40
2019-01-16T06:02:03.459Z,96.30
2019-01-16T06:04:42.712Z,96.20
2019-01-16T06:07:28.829Z,96.20
2019-01-16T06:10:04.881Z,96.00
2019-01-16T06:12:40.640Z,96.00
2019-01-16T06:15:13.341Z,96.00
2019-01-16T06:17:43.360Z,95.80
2019-01-16T06:20:13.410Z,95.70
2019-01-16T06:22:43.434Z,95.70
2019-01-16T06:25:28.672Z,95.80
2019-01-16T06:27:58.742Z,95.70
2019-01-16T06:30:28.754Z,95.70
2019-01-16T06:33:07.595Z,95.40
2019-01-16T06:35:43.576Z,95.30
2019-01-16T06:38:19.410Z,95.10
2019-01-16T06:41:01.739Z,95.00
2019-01-16T06:43:31.914Z,95.00
2019-01-16T06:46:02.062Z,95.00
2019-01-16T06:48:34.775Z,95.00
2019-01-16T06:51:10.590Z,94.70
2019-01-16T06:53:58.972Z,94.70
2019-01-16T06:56:29.034Z,94.80
2019-01-16T06:59:08.895Z,94.50
2019-01-16T07:01:39.041Z,94.60
2019-01-16T07:04:25.900Z,94.60
2019-01-16T07:06:58.719Z,94.50
2019-01-16T07:09:48.814Z,94.50
2019-01-16T07:12:24.850Z,94.40
2019-01-16T07:15:07.423Z,94.40
2019-01-16T07:17:50.524Z,94.40
2019-01-16T07:20:38.639Z,94.30
2019-01-16T07:23:14.301Z,94.30
2019-01-16T07:26:02.867Z,94.30
2019-01-16T07:28:38.944Z,93.90
2019-01-16T07:31:20.648Z,94.10
2019-01-16T07:33:50.782Z,93.90
2019-01-16T07:36:37.413Z,93.80
2019-01-16T07:39:09.380Z,93.80
2019-01-16T07:41:45.097Z,93.90
2019-01-16T07:44:33.538Z,93.70
2019-01-16T07:47:19.580Z,93.90
2019-01-16T07:50:06.205Z,93.90
2019-01-16T07:52:54.038Z,93.90
2019-01-16T07:55:27.079Z,93.70
2019-01-16T07:58:05.963Z,93.50
2019-01-16T08:00:52.216Z,93.40
2019-01-16T08:03:38.574Z,93.30
2019-01-16T08:06:23.327Z,93.50
2019-01-16T08:09:02.165Z,93.30
2019-01-16T08:11:34.873Z,93.10
2019-01-16T08:14:04.919Z,93.00
2019-01-16T08:16:37.925Z,93.00
2019-01-16T08:19:23.894Z,92.90
2019-01-16T08:22:02.605Z,93.00
2019-01-16T08:24:47.445Z,92.80
2019-01-16T08:27:33.724Z,92.70
2019-01-16T08:30:03.746Z,92.60
2019-01-16T08:32:33.789Z,92.60
2019-01-16T08:35:09.596Z,92.30
2019-01-16T08:37:42.615Z,92.30
2019-01-16T08:40:21.777Z,92.00
2019-01-16T08:43:07.934Z,91.80
2019-01-16T08:45:46.755Z,91.40
2019-01-16T08:48:33.310Z,91.80
2019-01-16T08:51:09.040Z,91.80
2019-01-16T08:53:39.154Z,91.50
2019-01-16T08:56:18.061Z,91.50
2019-01-16T08:58:51.188Z,91.60
2019-01-16T09:01:33.121Z,91.30
2019-01-16T09:04:05.999Z,91.50
2019-01-16T09:06:38.677Z,91.30
2019-01-16T09:09:28.705Z,91.30
2019-01-16T09:12:13.873Z,90.70
2019-01-16T09:14:43.921Z,91.20
2019-01-16T09:17:25.856Z,90.70
2019-01-16T09:20:10.790Z,90.90
2019-01-16T09:22:40.804Z,90.80
2019-01-16T09:25:16.551Z,90.30
2019-01-16T09:27:52.074Z,90.80
2019-01-16T09:30:38.307Z,90.70
2019-01-16T09:33:24.462Z,91.10
2019-01-16T09:36:09.164Z,90.50
2019-01-16T09:38:39.219Z,91.10
2019-01-16T09:41:14.719Z,90.90
2019-01-16T09:43:44.762Z,91.20
2019-01-16T09:46:30.984Z,90.80
2019-01-16T09:49:16.108Z,91.10
2019-01-16T09:51:48.857Z,90.80
2019-01-16T09:54:33.840Z,91.10
2019-01-16T09:57:19.931Z,91.20
2019-01-16T10:00:02.014Z,91.00
2019-01-16T10:02:32.030Z,90.10
2019-01-16T10:05:10.867Z,90.30
2019-01-16T10:07:40.882Z,90.20
2019-01-16T10:10:31.393Z,91.50
2019-01-16T10:13:13.318Z,90.80
2019-01-16T10:15:43.362Z,90.00
2019-01-16T10:18:13.374Z,90.00
2019-01-16T10:20:46.510Z,90.00
2019-01-16T10:23:25.170Z,90.00
2019-01-16T10:25:55.226Z,89.10
2019-01-16T10:28:25.233Z,89.10
2019-01-16T10:31:10.561Z,89.20
2019-01-16T10:33:46.318Z,89.30
2019-01-16T10:36:32.324Z,90.00
2019-01-16T10:39:05.353Z,89.70
2019-01-16T10:41:38.053Z,89.00
2019-01-16T10:44:24.096Z,89.40
2019-01-16T10:47:06.335Z,88.50
2019-01-16T10:49:36.385Z,90.00
2019-01-16T10:52:18.386Z,88.20
2019-01-16T10:55:06.446Z,87.60
2019-01-16T10:57:39.465Z,88.50
2019-01-16T11:00:21.877Z,88.20
2019-01-16T11:02:51.910Z,87.50
2019-01-16T11:05:25.025Z,88.00
2019-01-16T11:07:55.049Z,88.00
2019-01-16T11:10:33.862Z,86.80
2019-01-16T11:13:06.567Z,86.40
2019-01-16T11:15:42.321Z,86.30
2019-01-16T11:18:12.357Z,85.90
2019-01-16T11:20:45.169Z,87.20
2019-01-16T11:23:31.293Z,86.20
2019-01-16T11:26:04.029Z,85.20
2019-01-16T11:28:36.584Z,85.70
2019-01-16T11:31:12.461Z,84.30
2019-01-16T11:33:57.630Z,83.90
2019-01-16T11:36:36.416Z,84.70
2019-01-16T11:39:14.917Z,85.50
2019-01-16T11:41:47.642Z,85.00
2019-01-16T11:44:20.605Z,85.50
2019-01-16T11:46:59.405Z,86.20
2019-01-16T11:49:45.543Z,85.70
2019-01-16T11:52:32.236Z,86.00
2019-01-16T11:55:08.342Z,85.40
2019-01-16T11:57:47.286Z,86.60
2019-01-16T12:00:22.964Z,85.50
2019-01-16T12:02:55.689Z,85.90
2019-01-16T12:05:25.711Z,86.00
2019-01-16T12:08:01.502Z,85.70
2019-01-16T12:10:47.746Z,85.10
2019-01-16T12:13:27.035Z,84.50
2019-01-16T12:16:09.256Z,83.60
2019-01-16T12:18:45.004Z,83.60
2019-01-16T12:21:31.431Z,84.30
2019-01-16T12:24:01.446Z,85.30
2019-01-16T12:26:34.221Z,85.50
2019-01-16T12:29:12.940Z,86.50
2019-01-16T12:31:42.982Z,86.40
2019-01-16T12:34:31.210Z,85.20
2019-01-16T12:37:10.201Z,84.70
2019-01-16T12:39:49.326Z,84.40
2019-01-16T12:42:22.037Z,83.60
2019-01-16T12:44:54.626Z,84.80
2019-01-16T12:47:30.578Z,85.20
2019-01-16T12:50:03.126Z,84.80
2019-01-16T12:52:54.093Z,85.60
2019-01-16T12:55:28.307Z,85.70
2019-01-16T12:58:13.545Z,86.10
2019-01-16T13:00:56.965Z,86.80
2019-01-16T13:03:32.793Z,87.30
2019-01-16T13:06:02.809Z,87.00
2019-01-16T13:08:41.826Z,86.90
2019-01-16T13:11:11.841Z,85.50
2019-01-16T13:13:41.885Z,85.80
2019-01-16T13:16:26.917Z,85.70
2019-01-16T13:19:13.170Z,85.80
2019-01-16T13:21:55.098Z,85.10
2019-01-16T13:24:34.061Z,85.20
2019-01-16T13:27:22.345Z,85.40
2019-01-16T13:30:08.960Z,84.80
2019-01-16T13:32:54.868Z,84.50
2019-01-16T13:35:27.590Z,84.50
2019-01-16T13:38:13.930Z,83.30
2019-01-16T13:40:43.980Z,82.50
2019-01-16T13:43:32.083Z,82.80
2019-01-16T13:46:07.867Z,83.50
2019-01-16T13:48:37.922Z,82.30
2019-01-16T13:51:10.357Z,81.30
2019-01-16T13:53:43.119Z,82.70
2019-01-16T13:56:22.271Z,81.60
2019-01-16T13:58:55.021Z,81.70
2019-01-16T14:01:28.189Z,82.40
2019-01-16T14:04:04.113Z,82.40
2019-01-16T14:06:34.126Z,82.10
2019-01-16T14:09:16.369Z,82.80
2019-01-16T14:12:04.648Z,83.80
2019-01-16T14:14:34.706Z,82.90
2019-01-16T14:17:31.119Z,83.20
2019-01-16T14:20:13.473Z,83.40
2019-01-16T14:22:57.794Z,84.10
2019-01-16T14:25:50.838Z,83.30
2019-01-16T14:28:23.558Z,83.20
2019-01-16T14:30:59.394Z,83.60
2019-01-16T14:33:45.612Z,83.60
2019-01-16T14:36:19.192Z,84.10
2019-01-16T14:38:58.384Z,84.50
2019-01-16T14:41:34.451Z,85.00
2019-01-16T14:44:10.678Z,85.30
2019-01-16T14:46:40.803Z,85.90
2019-01-16T14:49:13.759Z,85.90
2019-01-16T14:51:46.838Z,86.40
2019-01-16T14:54:31.617Z,87.00
2019-01-16T14:57:02.599Z,86.80
2019-01-16T14:59:48.855Z,86.20
2019-01-16T15:02:24.853Z,86.80
2019-01-16T15:05:04.059Z,87.70
2019-01-16T15:07:37.085Z,88.10
2019-01-16T15:10:10.783Z,87.30
2019-01-16T15:12:44.616Z,87.50
2019-01-16T15:15:30.829Z,88.10
2019-01-16T15:18:09.603Z,88.80
2019-01-16T15:20:48.762Z,88.70
2019-01-16T15:23:18.781Z,89.20
2019-01-16T15:25:54.853Z,89.80
2019-01-16T15:28:34.052Z,89.30
2019-01-16T15:31:04.169Z,90.00
2019-01-16T15:33:43.594Z,89.90
2019-01-16T15:36:13.695Z,89.90
2019-01-16T15:38:46.458Z,89.10
2019-01-16T15:41:31.616Z,89.50
2019-01-16T15:44:01.675Z,89.50
2019-01-16T15:46:43.933Z,89.10
2019-01-16T15:49:30.825Z,89.20
2019-01-16T15:52:13.265Z,89.80
2019-01-16T15:54:43.777Z,89.80
2019-01-16T15:57:28.844Z,90.00
2019-01-16T15:59:58.916Z,90.00
2019-01-16T16:02:29.225Z,90.30
2019-01-16T16:04:59.388Z,90.50
2019-01-16T16:07:29.439Z,90.40
2019-01-16T16:10:02.396Z,90.60
2019-01-16T16:12:35.139Z,90.80
2019-01-16T16:15:18.047Z,91.10
2019-01-16T16:17:48.577Z,91.20
2019-01-16T16:20:33.349Z,91.30
2019-01-16T16:23:03.567Z,91.50
2019-01-16T16:25:33.777Z,91.60
2019-01-16T16:28:12.835Z,91.70
2019-01-16T16:30:42.908Z,91.80
2019-01-16T16:33:19.203Z,91.90
2019-01-16T16:35:55.487Z,91.90
2019-01-16T16:38:31.733Z,91.90
2019-01-16T16:41:10.899Z,92.10
2019-01-16T16:43:40.997Z,92.40
2019-01-16T16:46:22.946Z,92.70
2019-01-16T16:48:53.007Z,92.90
2019-01-16T16:51:31.900Z,93.00
2019-01-16T16:54:18.236Z,93.10
2019-01-16T16:57:00.274Z,93.20
2019-01-16T16:59:46.617Z,93.10
2019-01-16T17:02:25.324Z,93.10
2019-01-16T17:05:04.468Z,93.00
2019-01-16T17:07:34.501Z,93.20
2019-01-16T17:10:20.420Z,93.10
2019-01-16T17:12:51.721Z,93.20
2019-01-16T17:15:21.786Z,93.60
2019-01-16T17:18:08.225Z,93.40
2019-01-16T17:20:56.390Z,93.60
2019-01-16T17:23:35.122Z,93.80
2019-01-16T17:26:08.301Z,93.80
2019-01-16T17:28:41.023Z,93.80
2019-01-16T17:31:20.048Z,93.90
2019-01-16T17:33:56.004Z,94.10
2019-01-16T17:36:26.049Z,94.20
2019-01-16T17:38:56.069Z,94.30
2019-01-16T17:41:28.812Z,94.30
2019-01-16T17:44:04.626Z,94.30
2019-01-16T17:46:49.646Z,94.30
2019-01-16T17:49:25.400Z,94.20
2019-01-16T17:52:13.750Z,94.40
2019-01-16T17:55:02.021Z,94.60
2019-01-16T17:57:37.917Z,94.50
2019-01-16T18:00:31.846Z,94.40
2019-01-16T18:03:01.993Z,94.60
2019-01-16T18:05:32.025Z,94.60
2019-01-16T18:08:02.080Z,94.80
2019-01-16T18:10:34.985Z,94.90
2019-01-16T18:13:06.460Z,95.10
2019-01-16T18:15:52.714Z,95.10
2019-01-16T18:18:22.839Z,95.00
2019-01-16T18:20:55.870Z,95.20
2019-01-16T18:23:42.350Z,95.20
2019-01-16T18:26:18.151Z,95.70
2019-01-16T18:29:03.245Z,95.80
2019-01-16T18:31:38.910Z,96.00
2019-01-16T18:34:15.876Z,96.20
2019-01-16T18:36:54.688Z,96.30
2019-01-16T18:39:45.216Z,96.50
2019-01-16T18:42:15.408Z,97.10
2019-01-16T18:44:48.313Z,96.80
2019-01-16T18:47:18.383Z,97.10
2019-01-16T18:49:48.409Z,97.10
2019-01-16T18:52:18.469Z,97.30
2019-01-16T18:55:00.763Z,97.30
2019-01-16T18:57:33.690Z,97.30
2019-01-16T19:00:03.869Z,97.50
2019-01-16T19:02:50.415Z,97.70
2019-01-16T19:05:20.429Z,97.80
2019-01-16T19:07:56.278Z,97.60
2019-01-16T19:10:35.286Z,97.70
2019-01-16T19:16:01.790Z,97.80
2019-01-16T19:18:46.868Z,98.20
2019-01-16T19:21:19.839Z,98.30
2019-01-16T19:23:55.677Z,98.50
2019-01-16T19:26:37.665Z,98.60
2019-01-16T19:29:11.017Z,98.60
2019-01-16T19:31:41.236Z,98.70
2019-01-16T19:34:11.976Z,98.70
2019-01-16T19:36:47.746Z,98.90
2019-01-16T19:39:36.139Z,98.90
2019-01-16T19:42:06.221Z,99.00
2019-01-16T19:44:51.174Z,99.20
2019-01-16T19:47:26.789Z,99.30
2019-01-16T19:49:59.778Z,99.40
2019-01-16T19:55:31.055Z,99.60
2019-01-16T19:58:13.187Z,99.60
2019-01-16T20:00:46.102Z,99.40
2019-01-16T20:03:18.984Z,99.60
2019-01-16T20:05:49.335Z,99.40
2019-01-16T20:08:24.902Z,99.30
2019-01-16T20:11:13.039Z,99.10
2019-01-16T20:16:45.460Z,99.70
2019-01-16T20:19:33.714Z,99.70
2019-01-16T20:22:04.834Z,99.90
2019-01-16T20:24:34.920Z,99.40
2019-01-16T20:27:20.956Z,99.70
2019-01-16T20:29:51.413Z,99.80
2019-01-16T20:32:34.438Z,99.60
2019-01-16T20:35:19.480Z,99.40
2019-01-16T20:37:55.184Z,99.20
2019-01-16T20:40:25.700Z,99.60
2019-01-16T20:43:11.339Z,99.20
2019-01-16T20:45:42.190Z,99.10
2019-01-16T20:48:24.428Z,99.00
2019-01-16T20:50:54.833Z,99.10
2019-01-16T20:53:25.153Z,99.20
2019-01-16T20:55:58.852Z,99.40
2019-01-16T20:58:44.399Z,99.20
2019-01-16T21:01:15.157Z,99.00
2019-01-16T21:03:51.763Z,99.00
2019-01-16T21:06:36.932Z,99.10
2019-01-16T21:09:11.949Z,99.20
2019-01-16T21:11:57.364Z,98.80
2019-01-16T21:14:47.260Z,98.50
2019-01-16T21:17:46.205Z,98.30
2019-01-16T21:20:16.501Z,98.10
2019-01-16T21:22:52.384Z,97.90
2019-01-16T21:25:29.554Z,98.20
2019-01-16T21:28:16.218Z,97.70
2019-01-16T21:30:58.310Z,97.50
2019-01-16T21:33:29.948Z,97.70
2019-01-16T21:36:03.741Z,97.60
2019-01-16T21:38:39.996Z,97.80
2019-01-16T21:41:16.407Z,97.70
2019-01-16T21:44:02.610Z,97.80
2019-01-16T21:46:49.596Z,97.90
2019-01-16T21:49:23.866Z,98.20
2019-01-16T21:51:56.627Z,98.20
2019-01-16T21:54:38.673Z,98.20
2019-01-16T21:57:26.890Z,98.10
2019-01-16T22:00:05.791Z,98.40
2019-01-16T22:02:45.021Z,98.60
2019-01-16T22:05:18.141Z,99.00
2019-01-16T22:07:57.312Z,99.10
2019-01-16T22:10:30.541Z,99.00
2019-01-16T22:13:10.043Z,98.90
2019-01-16T22:15:42.956Z,98.60
2019-01-16T22:18:15.430Z,98.40
2019-01-16T22:20:54.719Z,98.00
2019-01-16T22:23:24.790Z,97.70
2019-01-16T22:25:57.822Z,97.40
2019-01-16T22:28:28.647Z,96.90
2019-01-16T22:31:08.291Z,96.50
2019-01-16T22:33:54.326Z,96.20
2019-01-16T22:36:48.007Z,95.70
2019-01-16T22:39:48.572Z,95.70
2019-01-16T22:42:25.692Z,95.50
2019-01-16T22:45:08.203Z,95.80
2019-01-16T22:47:41.503Z,95.40
2019-01-16T22:50:43.264Z,95.30
2019-01-16T22:53:16.016Z,95.30
2019-01-16T22:55:55.291Z,94.90
2019-01-16T22:58:29.087Z,94.90
2019-01-16T23:01:10.425Z,95.80
2019-01-16T23:03:45.800Z,95.50
2019-01-16T23:06:22.301Z,95.60
2019-01-16T23:08:55.537Z,95.70
2019-01-16T23:11:33.984Z,95.80
2019-01-16T23:14:04.372Z,95.70
2019-01-16T23:16:48.146Z,95.70
2019-01-16T23:19:40.307Z,96.00
2019-01-16T23:22:14.319Z,95.70
2019-01-16T23:24:49.204Z,95.60
2019-01-16T23:27:21.882Z,95.90
2019-01-16T23:29:58.842Z,95.50
2019-01-16T23:32:33.469Z,95.40
2019-01-16T23:35:21.771Z,95.50
2019-01-16T23:38:09.153Z,95.50
2019-01-16T23:40:40.126Z,95.60
2019-01-16T23:43:12.948Z,95.90
2019-01-16T23:45:48.904Z,96.00
2019-01-16T23:48:30.921Z,96.20
2019-01-16T23:51:17.030Z,96.20
2019-01-16T23:53:56.269Z,96.40
2019-01-16T23:56:24.784Z,96.30
2019-01-16T23:59:00.562Z,96.30
